Flight ASX315

  • Submitted By: Krzysztof H. Blaszkow
  • Departure Airport: Gdansk im. Lecha Walesy (EPGD)
  • Arrival Airport: Szczecin (EPSC)
  • Aircraft: BE58 (SP-MVL)
  • Flight Time: 01.10.03
  • Date Submitted: 01/24/2017
  • Status: Accepted
Flight Details
Gross Revenue:
(5 load / € 55.00 per unit
€ 275.00
Fuel Cost:
(78.9251 fuel used @ 0.45 / unit)
€ 35.52

Additional Log Information:

View Log

[22:05] - Carenado BARON B58 METAL BLUE
[22:05] - Flight ASX315 is ready to depart EPGD with a final destination of EPSC.
[22:05] - Parking Brake Applied
[22:05] - Navigation Lights ON
[22:05] - Beacon Light ON
[22:05] - Instrument Lights ON
[22:05] - Recognition Lights ON
[22:05] - Wing Lights ON
[22:05] - Logo Lights ON
[22:05] - Cabin Lights ON
[22:05] - Boarding
[22:05] - ADF1 - 284.0
[22:05] - ADF2 - 240.0
[22:05] - NAV1 - 116.10
[22:05] - NAV2 - 116.10
[22:05] - COM1 - 122.80
[22:05] - COM2 - 123.45
[22:05] - Transponder - 2000
[22:09] - Engine 1 Started
[22:09] - Engine 2 Started
[22:10] - Taxi Lights ON 0AGL
[22:10] - Parking Brake Released
[22:10] - Pushing Back from the gate
[22:12] - Taxiing to Runway
[22:14] - Taxi Lights OFF 0AGL
[22:14] - Landing Lights ON 0AGL
[22:14] - Strobe Lights ON 0AGL
[22:16] - Taking Off with 5 passengers on board
[22:16] - Take off at 102kts, with a pitch of 6deg and 274lbs of fuel on board
[22:16] - Wind Heading 270 | Wind Speed 6kts | Temperature 0 deg C
[22:16] - METAR Departure: EPGD 232200Z 25008KT 4000 BR OVC004 M01/M02 Q1020

[22:16] - Gear up at 154AGL
[22:16] - Climbing to TOC
[22:19] - AutoPilot Engaged at 4735AGL
[22:19] - TOC reached
[22:19] - Cruise started
[22:22] - Landing Lights OFF 5217AGL
[22:29] - NAV1 - 114.75
[22:40] - Landing Lights ON 7838AGL
[22:57] - Cabin Lights OFF 2171AGL
[23:04] - NAV1 - 110.50
[23:07] - Flaps to position 1 at 1693ft and 128kts
[23:07] - Gear down at 1467AGL
[23:09] - Flaps to position 2 at 574ft and 98kts
[23:10] - AutoPilot Disengaged at 282AGL
[23:11] - Landed at -174fpm. With 104lbs of fuel onboard and a pitch angle of 3deg.
[23:11] - Wind Heading 277 | Wind Speed 5kts | Temperature -1 deg C
[23:11] - METAR Arrival: EPSC 232230Z 24002KT 3000 BR FEW003 OVC004 M01/M02 Q1024 R13/52//95

[23:11] - Flaps to position 1
[23:11] - Flaps to position 0
[23:11] - Taxiing to Gate
[23:12] - Landing Lights OFF 3AGL
[23:12] - Taxi Lights ON 3AGL
[23:12] - Strobe Lights OFF 3AGL
[23:14] - Parking Brake Applied
[23:14] - Arrived safely at EPSC. We hope you enjoyed your flight!
[23:14] - Taxi Lights OFF 3AGL
[23:14] - Engine 1 Stopped
[23:14] - Engine 2 Stopped
[23:14] - Wing Lights OFF 3AGL
[23:14] - Beacon Lights OFF 3AGL
[23:15] - Instrument Lights OFF 3AGL
[23:15] - Carenado BARON B58 METAL BLUE
[23:15] - MaxSim Rate: 1x
[23:15] - SiouxAcars ver: 1.0.1.2

Route Map